createdAt,value
2018-02-18T00:00:37.888Z,28.12
2018-02-18T00:03:05.436Z,25.77
2018-02-18T00:05:33.024Z,26.90
2018-02-18T00:08:01.331Z,25.73
2018-02-18T00:10:28.918Z,26.35
2018-02-18T00:12:56.453Z,23.83
2018-02-18T00:15:24.040Z,26.73
2018-02-18T00:17:51.581Z,25.42
2018-02-18T00:20:19.253Z,32.90
2018-02-18T00:22:46.787Z,27.62
2018-02-18T00:25:14.372Z,26.58
2018-02-18T00:27:41.911Z,26.02
2018-02-18T00:30:09.497Z,31.00
2018-02-18T00:32:37.032Z,28.92
2018-02-18T00:35:04.615Z,32.78
2018-02-18T00:37:32.147Z,30.60
2018-02-18T00:39:59.744Z,29.60
2018-02-18T00:42:27.299Z,27.40
2018-02-18T00:44:54.881Z,28.05
2018-02-18T00:47:22.423Z,29.55
2018-02-18T00:49:50.012Z,31.08
2018-02-18T00:52:17.552Z,30.92
2018-02-18T00:54:45.131Z,34.55
2018-02-18T00:57:12.664Z,35.92
2018-02-18T00:59:40.249Z,35.00
2018-02-18T01:02:07.794Z,33.25
2018-02-18T01:04:35.378Z,29.70
2018-02-18T01:07:03.692Z,31.80
2018-02-18T01:09:31.280Z,31.08
2018-02-18T01:11:58.817Z,33.78
2018-02-18T01:14:26.419Z,33.15
2018-02-18T01:16:53.956Z,31.17
2018-02-18T01:19:21.496Z,32.20
2018-02-18T01:21:49.076Z,30.80
2018-02-18T01:24:16.659Z,30.80
2018-02-18T01:26:45.698Z,34.05
2018-02-18T01:29:13.303Z,35.17
2018-02-18T01:31:40.854Z,34.38
2018-02-18T01:34:08.440Z,32.60
2018-02-18T01:36:35.974Z,32.85
2018-02-18T01:39:03.559Z,33.10
2018-02-18T01:41:31.087Z,35.35
2018-02-18T01:43:58.692Z,38.03
2018-02-18T01:46:26.988Z,33.17
2018-02-18T01:48:54.674Z,37.10
2018-02-18T01:51:22.207Z,38.22
2018-02-18T01:53:49.797Z,37.45
2018-02-18T01:56:17.339Z,39.42
2018-02-18T01:58:44.923Z,39.55
2018-02-18T02:01:12.451Z,36.25
2018-02-18T02:03:40.036Z,33.33
2018-02-18T02:06:07.578Z,43.58
2018-02-18T02:08:35.165Z,42.17
2018-02-18T02:11:02.698Z,41.37
2018-02-18T02:13:30.289Z,40.75
2018-02-18T02:15:57.826Z,41.97
2018-02-18T02:18:25.446Z,44.60
2018-02-18T02:20:53.755Z,40.00
2018-02-18T02:23:21.341Z,39.38
2018-02-18T02:25:48.878Z,38.95
2018-02-18T02:28:16.465Z,42.13
2018-02-18T02:30:43.992Z,40.55
2018-02-18T02:33:11.577Z,40.95
2018-02-18T02:35:39.122Z,39.75
2018-02-18T02:38:06.719Z,39.90
2018-02-18T02:40:34.255Z,42.58
2018-02-18T02:43:01.845Z,41.90
2018-02-18T02:45:29.381Z,36.58
2018-02-18T02:47:57.143Z,39.38
2018-02-18T02:50:24.681Z,38.67
2018-02-18T02:52:52.270Z,39.05
2018-02-18T02:55:19.827Z,44.70
2018-02-18T02:57:47.360Z,41.83
2018-02-18T03:00:14.946Z,42.70
2018-02-18T03:02:42.537Z,48.40
2018-02-18T03:05:10.080Z,42.45
2018-02-18T03:07:37.666Z,41.55
2018-02-18T03:10:05.968Z,43.87
2018-02-18T03:12:33.552Z,47.95
2018-02-18T03:15:01.084Z,48.65
2018-02-18T03:17:28.671Z,40.70
2018-02-18T03:19:56.208Z,41.90
2018-02-18T03:22:23.792Z,45.33
2018-02-18T03:24:51.322Z,46.58
2018-02-18T03:27:18.904Z,42.22
2018-02-18T03:29:46.451Z,48.90
2018-02-18T03:32:14.067Z,41.50
2018-02-18T03:34:41.601Z,51.83
2018-02-18T03:37:09.151Z,46.10
2018-02-18T03:39:36.741Z,43.53
2018-02-18T03:42:04.364Z,44.33
2018-02-18T03:44:31.957Z,49.55
2018-02-18T03:46:59.498Z,52.85
2018-02-18T03:49:27.092Z,47.35
2018-02-18T03:51:54.636Z,46.92
2018-02-18T03:54:22.219Z,50.15
2018-02-18T03:56:50.574Z,43.15
2018-02-18T03:59:18.111Z,44.95
2018-02-18T04:01:45.698Z,46.50
2018-02-18T04:04:13.237Z,48.53
2018-02-18T04:06:40.821Z,51.30
2018-02-18T04:09:08.366Z,53.50
2018-02-18T04:11:35.954Z,47.78
2018-02-18T04:14:04.256Z,45.22
2018-02-18T04:16:31.851Z,46.22
2018-02-18T04:18:59.391Z,39.25
2018-02-18T04:21:26.927Z,45.60
2018-02-18T04:23:54.515Z,47.70
2018-02-18T04:26:22.093Z,55.20
2018-02-18T04:28:49.626Z,46.08
2018-02-18T04:31:17.210Z,47.08
2018-02-18T04:33:44.744Z,54.63
2018-02-18T04:36:12.338Z,49.17
2018-02-18T04:38:39.885Z,49.25
2018-02-18T04:41:07.414Z,50.15
2018-02-18T04:43:35.001Z,49.85
2018-02-18T04:46:03.362Z,47.70
2018-02-18T04:48:30.953Z,52.22
2018-02-18T04:50:58.492Z,53.10
2018-02-18T04:53:26.077Z,55.67
2018-02-18T04:55:53.611Z,50.65
2018-02-18T04:58:21.204Z,56.28
2018-02-18T05:00:48.746Z,47.40
2018-02-18T05:03:17.415Z,52.28
2018-02-18T05:05:44.958Z,51.92
2018-02-18T05:08:12.539Z,53.15
2018-02-18T05:10:40.080Z,49.05
2018-02-18T05:13:07.666Z,53.47
2018-02-18T05:15:35.199Z,49.15
2018-02-18T05:18:02.777Z,51.08
2018-02-18T05:20:30.320Z,50.33
2018-02-18T05:22:57.912Z,52.15
2018-02-18T05:25:25.443Z,54.47
2018-02-18T05:27:53.023Z,49.17
2018-02-18T05:30:20.554Z,54.00
2018-02-18T05:32:48.134Z,53.05
2018-02-18T05:35:15.673Z,55.22
2018-02-18T05:37:43.280Z,46.37
2018-02-18T05:40:10.817Z,60.55
2018-02-18T05:42:38.416Z,53.67
2018-02-18T05:45:05.953Z,52.50
2018-02-18T05:47:33.558Z,53.17
2018-02-18T05:50:01.867Z,59.70
2018-02-18T05:52:29.451Z,52.90
2018-02-18T05:54:56.986Z,50.50
2018-02-18T05:57:24.568Z,57.83
2018-02-18T05:59:52.101Z,49.72
2018-02-18T06:02:21.847Z,54.80
2018-02-18T06:04:49.444Z,58.97
2018-02-18T06:07:17.791Z,57.67
2018-02-18T06:09:45.332Z,54.05
2018-02-18T06:12:18.502Z,56.08
2018-02-18T06:14:47.784Z,54.75
2018-02-18T06:17:15.370Z,54.85
2018-02-18T06:19:42.910Z,53.87
2018-02-18T06:22:10.496Z,53.28
2018-02-18T06:24:38.040Z,48.53
2018-02-18T06:27:05.984Z,55.28
2018-02-18T06:29:34.290Z,54.03
2018-02-18T06:32:01.876Z,58.90
2018-02-18T06:34:35.657Z,57.55
2018-02-18T06:37:03.239Z,70.50
2018-02-18T06:39:30.776Z,60.42
2018-02-18T06:42:02.202Z,60.00
2018-02-18T06:44:31.360Z,57.75
2018-02-18T06:46:58.967Z,63.13
2018-02-18T06:49:28.101Z,62.90
2018-02-18T06:51:56.599Z,62.88
2018-02-18T06:54:24.209Z,56.85
2018-02-18T06:57:04.036Z,64.50
2018-02-18T06:59:32.336Z,61.70
2018-02-18T07:01:59.946Z,63.05
2018-02-18T07:04:27.493Z,55.60
2018-02-18T07:06:55.129Z,59.05
2018-02-18T07:09:23.756Z,57.55
2018-02-18T07:11:52.075Z,63.03
2018-02-18T07:14:19.661Z,59.03
2018-02-18T07:16:49.673Z,64.65
2018-02-18T07:19:17.256Z,63.55
2018-02-18T07:21:44.794Z,58.25
2018-02-18T07:24:12.380Z,59.40
2018-02-18T07:26:39.922Z,63.25
2018-02-18T07:29:09.610Z,61.47
2018-02-18T07:34:30.405Z,72.25
2018-02-18T07:36:59.113Z,63.58
2018-02-18T07:39:27.064Z,73.85
2018-02-18T07:42:21.193Z,63.90
2018-02-18T07:44:48.729Z,62.03
2018-02-18T07:47:17.580Z,69.00
2018-02-18T07:49:45.888Z,71.70
2018-02-18T07:52:13.472Z,74.20
2018-02-18T07:54:41.011Z,66.35
2018-02-18T07:57:10.680Z,68.53
2018-02-18T07:59:38.210Z,62.67
2018-02-18T08:02:12.592Z,67.05
2018-02-18T08:04:40.126Z,63.47
2018-02-18T08:07:10.493Z,68.20
2018-02-18T08:09:38.032Z,64.87
2018-02-18T08:15:10.128Z,67.85
2018-02-18T08:17:41.975Z,67.53
2018-02-18T08:20:09.533Z,67.10
2018-02-18T08:22:37.121Z,64.10
2018-02-18T08:25:04.659Z,68.32
2018-02-18T08:27:34.661Z,67.43
2018-02-18T08:30:02.972Z,62.47
2018-02-18T08:32:30.556Z,70.32
2018-02-18T08:34:58.190Z,60.70
2018-02-18T08:37:25.770Z,65.68
2018-02-18T08:39:53.311Z,69.90
2018-02-18T08:42:20.899Z,56.58
2018-02-18T08:44:48.433Z,62.88
2018-02-18T08:47:16.027Z,65.18
2018-02-18T08:49:43.569Z,63.87
2018-02-18T08:52:11.157Z,61.17
2018-02-18T08:54:38.696Z,63.45
2018-02-18T08:57:06.292Z,58.08
2018-02-18T08:59:34.598Z,59.90
2018-02-18T09:02:02.200Z,59.58
2018-02-18T09:04:29.744Z,59.10
2018-02-18T09:06:57.325Z,58.50
2018-02-18T09:09:26.363Z,56.20
2018-02-18T09:11:53.948Z,55.85
2018-02-18T09:14:21.480Z,55.28
2018-02-18T09:16:49.071Z,59.75
2018-02-18T09:19:16.613Z,63.63
2018-02-18T09:21:44.199Z,56.80
2018-02-18T09:24:11.731Z,67.90
2018-02-18T09:26:39.316Z,70.05
2018-02-18T09:29:06.856Z,77.85
2018-02-18T09:31:34.443Z,69.82
2018-02-18T09:34:01.989Z,79.80
2018-02-18T09:36:29.571Z,73.50
2018-02-18T09:38:57.156Z,77.10
2018-02-18T09:41:25.459Z,90.07
2018-02-18T09:43:53.068Z,85.87
2018-02-18T09:46:20.606Z,85.07
2018-02-18T09:48:48.212Z,82.25
2018-02-18T09:51:16.514Z,92.37
2018-02-18T09:53:44.052Z,90.20
2018-02-18T09:56:12.395Z,88.72
2018-02-18T09:58:39.931Z,94.78
2018-02-18T10:01:07.518Z,95.15
2018-02-18T10:03:35.100Z,92.43
2018-02-18T10:06:02.642Z,89.20
2018-02-18T10:08:30.223Z,94.95
2018-02-18T10:10:57.766Z,98.25
2018-02-18T10:13:25.308Z,96.65
2018-02-18T10:15:52.891Z,89.20
2018-02-18T10:18:21.944Z,90.53
2018-02-18T10:20:49.537Z,93.72
2018-02-18T10:23:17.072Z,90.78
2018-02-18T10:25:44.662Z,80.47
2018-02-18T10:28:12.290Z,96.03
2018-02-18T10:30:39.878Z,83.97
2018-02-18T10:33:08.189Z,90.38
2018-02-18T10:35:36.533Z,86.53
2018-02-18T10:38:04.078Z,86.35
2018-02-18T10:40:31.673Z,82.28
2018-02-18T10:42:59.976Z,88.40
2018-02-18T10:45:27.576Z,81.03
2018-02-18T10:47:55.119Z,84.95
2018-02-18T10:50:22.708Z,78.05
2018-02-18T10:52:50.241Z,83.57
2018-02-18T10:55:17.828Z,77.25
2018-02-18T10:57:45.365Z,79.90
2018-02-18T11:00:12.951Z,81.57
2018-02-18T11:02:40.497Z,82.37
2018-02-18T11:05:08.105Z,81.63
2018-02-18T11:07:35.651Z,78.97
2018-02-18T11:10:04.005Z,84.97
2018-02-18T11:12:31.538Z,84.65
2018-02-18T11:14:59.124Z,82.10
2018-02-18T11:17:26.661Z,78.35
2018-02-18T11:19:54.237Z,78.90
2018-02-18T11:22:21.773Z,72.32
2018-02-18T11:24:49.379Z,79.37
2018-02-18T11:27:16.918Z,69.95
2018-02-18T11:29:44.452Z,72.18
2018-02-18T11:32:12.033Z,75.12
2018-02-18T11:34:39.623Z,70.93
2018-02-18T11:37:07.927Z,73.82
2018-02-18T11:39:35.512Z,75.20
2018-02-18T11:42:03.067Z,71.70
2018-02-18T11:44:30.657Z,62.10
2018-02-18T11:46:58.191Z,72.35
2018-02-18T11:49:25.785Z,66.55
2018-02-18T11:51:53.365Z,71.28
2018-02-18T11:54:20.944Z,64.00
2018-02-18T11:56:48.478Z,70.25
2018-02-18T11:59:16.011Z,72.25
2018-02-18T12:01:43.604Z,77.70
2018-02-18T12:04:11.926Z,67.53
2018-02-18T12:06:39.513Z,69.87
2018-02-18T12:09:07.100Z,65.68
2018-02-18T12:11:35.406Z,73.37
2018-02-18T12:14:02.944Z,71.93
2018-02-18T12:16:31.302Z,68.40
2018-02-18T12:18:58.839Z,72.20
2018-02-18T12:21:26.426Z,73.55
2018-02-18T12:23:53.961Z,77.45
2018-02-18T12:26:21.550Z,63.42
2018-02-18T12:28:49.087Z,70.97
2018-02-18T12:31:16.669Z,61.15
2018-02-18T12:33:44.973Z,66.90
2018-02-18T12:36:12.564Z,64.65
2018-02-18T12:38:40.097Z,61.92
2018-02-18T12:41:07.684Z,57.05
2018-02-18T12:43:35.228Z,54.92
2018-02-18T12:46:02.814Z,63.03
2018-02-18T12:48:30.356Z,64.12
2018-02-18T12:50:58.057Z,57.65
2018-02-18T12:53:26.373Z,57.62
2018-02-18T12:55:53.956Z,62.70
2018-02-18T12:58:21.514Z,65.90
2018-02-18T13:00:49.105Z,62.28
2018-02-18T13:03:16.701Z,52.90
2018-02-18T13:05:45.005Z,52.05
2018-02-18T13:08:12.588Z,46.90
2018-02-18T13:10:40.126Z,40.35
2018-02-18T13:13:07.733Z,42.62
2018-02-18T13:15:36.123Z,42.22
2018-02-18T13:18:04.428Z,43.42
2018-02-18T13:20:32.015Z,39.60
2018-02-18T13:22:59.553Z,35.97
2018-02-18T13:25:27.142Z,35.63
2018-02-18T13:27:54.676Z,34.20
2018-02-18T13:30:22.269Z,36.92
2018-02-18T13:32:49.797Z,35.65
2018-02-18T13:35:17.379Z,40.15
2018-02-18T13:37:45.050Z,40.03
2018-02-18T13:40:12.639Z,39.42
2018-02-18T13:42:40.181Z,34.03
2018-02-18T13:45:07.783Z,34.08
2018-02-18T13:47:35.315Z,35.38
2018-02-18T13:50:02.903Z,33.45
2018-02-18T13:52:30.444Z,32.92
2018-02-18T13:54:58.792Z,27.42
2018-02-18T13:57:26.328Z,32.88
2018-02-18T13:59:53.925Z,30.55
2018-02-18T14:02:21.458Z,28.95
2018-02-18T14:04:49.055Z,30.70
2018-02-18T14:07:17.379Z,28.10
2018-02-18T14:09:44.971Z,28.75
2018-02-18T14:12:12.517Z,32.47
2018-02-18T14:14:40.284Z,25.77
2018-02-18T14:17:07.824Z,26.42
2018-02-18T14:19:35.402Z,25.10
2018-02-18T14:22:02.945Z,23.55
2018-02-18T14:24:30.553Z,26.95
2018-02-18T14:26:58.091Z,26.08
2018-02-18T14:29:25.681Z,25.65
2018-02-18T14:31:53.988Z,25.77
2018-02-18T14:34:21.597Z,21.25
2018-02-18T14:36:49.143Z,24.67
2018-02-18T14:39:16.950Z,20.45
2018-02-18T14:41:57.182Z,21.00
2018-02-18T14:44:36.570Z,24.77
2018-02-18T14:47:16.180Z,17.80
2018-02-18T14:49:56.348Z,21.48
2018-02-18T14:52:36.464Z,23.80
2018-02-18T14:55:29.788Z,24.23
2018-02-18T14:57:57.324Z,27.65
2018-02-18T15:00:25.673Z,26.30
2018-02-18T15:02:53.494Z,26.67
2018-02-18T15:05:21.080Z,27.75
2018-02-18T15:07:48.616Z,29.25
2018-02-18T15:10:16.207Z,27.10
2018-02-18T15:12:43.740Z,28.40
2018-02-18T15:15:11.353Z,27.87
2018-02-18T15:17:38.895Z,28.38
2018-02-18T15:20:07.032Z,28.30
2018-02-18T15:22:34.581Z,29.50
2018-02-18T15:25:02.185Z,25.73
2018-02-18T15:27:29.728Z,27.45
2018-02-18T15:29:57.371Z,25.65
2018-02-18T15:32:24.913Z,27.30
2018-02-18T15:34:52.804Z,27.27
2018-02-18T15:37:20.335Z,23.35
2018-02-18T15:39:47.880Z,28.77
2018-02-18T15:42:16.234Z,25.08
2018-02-18T15:44:43.773Z,27.58
2018-02-18T15:47:11.353Z,22.20
2018-02-18T15:49:38.901Z,20.92
2018-02-18T15:52:06.499Z,20.92
2018-02-18T15:54:35.019Z,21.35
2018-02-18T15:57:02.608Z,20.77
2018-02-18T15:59:30.150Z,21.50
2018-02-18T16:01:57.736Z,21.85
2018-02-18T16:04:25.462Z,23.35
2018-02-18T16:06:53.061Z,20.00
2018-02-18T16:09:20.603Z,18.95
2018-02-18T16:11:48.186Z,24.63
2018-02-18T16:14:15.723Z,19.80
2018-02-18T16:16:43.368Z,18.85
2018-02-18T16:19:10.914Z,18.50
2018-02-18T16:21:38.496Z,18.90
2018-02-18T16:24:06.038Z,21.37
2018-02-18T16:26:33.624Z,20.05
2018-02-18T16:29:01.159Z,19.37
2018-02-18T16:31:28.722Z,20.48
2018-02-18T16:34:08.270Z,18.25
2018-02-18T16:36:36.651Z,16.70
2018-02-18T16:39:04.192Z,15.10
2018-02-18T16:41:31.767Z,16.40
2018-02-18T16:43:59.301Z,18.85
2018-02-18T16:46:26.893Z,18.23
2018-02-18T16:48:54.437Z,16.73
2018-02-18T16:51:21.976Z,18.12
2018-02-18T16:53:49.570Z,19.50
2018-02-18T16:56:17.141Z,18.33
2018-02-18T16:58:44.707Z,18.70
2018-02-18T17:01:12.245Z,19.60
2018-02-18T17:03:39.831Z,31.20
2018-02-18T17:06:07.367Z,18.90
2018-02-18T17:08:34.909Z,19.02
2018-02-18T17:11:02.488Z,19.08
2018-02-18T17:13:30.056Z,23.25
2018-02-18T17:15:57.588Z,20.12
2018-02-18T17:18:25.177Z,28.02
2018-02-18T17:20:52.712Z,22.65
2018-02-18T17:23:20.256Z,24.08
2018-02-18T17:25:47.828Z,22.90
2018-02-18T17:28:15.361Z,23.85
2018-02-18T17:30:42.938Z,23.75
2018-02-18T17:33:10.669Z,23.38
2018-02-18T17:35:38.117Z,25.77
2018-02-18T17:38:05.657Z,28.33
2018-02-18T17:40:33.206Z,25.85
2018-02-18T17:43:00.773Z,23.67
2018-02-18T17:45:28.368Z,28.00
2018-02-18T17:47:56.711Z,25.62
2018-02-18T17:50:24.254Z,28.00
2018-02-18T17:52:51.793Z,25.33
2018-02-18T17:55:19.372Z,28.15
2018-02-18T17:57:46.907Z,26.75
2018-02-18T18:00:14.484Z,25.83
2018-02-18T18:02:42.062Z,30.35
2018-02-18T18:05:09.595Z,27.35
2018-02-18T18:07:37.180Z,24.45
2018-02-18T18:10:04.714Z,27.70
2018-02-18T18:12:32.293Z,29.70
2018-02-18T18:14:59.837Z,26.92
2018-02-18T18:17:27.409Z,24.85
2018-02-18T18:19:54.954Z,25.58
2018-02-18T18:22:22.497Z,23.73
2018-02-18T18:24:50.056Z,25.58
2018-02-18T18:27:17.629Z,27.73
2018-02-18T18:29:45.160Z,26.02
2018-02-18T18:32:13.498Z,31.58
2018-02-18T18:34:41.074Z,28.92
2018-02-18T18:37:08.607Z,29.48
2018-02-18T18:39:36.145Z,29.60
2018-02-18T18:42:03.719Z,26.87
2018-02-18T18:44:31.255Z,29.87
2018-02-18T18:46:58.823Z,31.15
2018-02-18T18:49:26.393Z,26.77
2018-02-18T18:51:53.963Z,30.98
2018-02-18T18:54:21.515Z,29.00
2018-02-18T18:56:49.092Z,27.50
2018-02-18T18:59:16.671Z,26.87
2018-02-18T19:01:44.211Z,31.37
2018-02-18T19:04:11.785Z,30.77
2018-02-18T19:06:39.346Z,28.85
2018-02-18T19:09:06.885Z,29.20
2018-02-18T19:11:34.476Z,31.40
2018-02-18T19:14:02.014Z,29.48
2018-02-18T19:16:29.550Z,42.45
2018-02-18T19:18:57.123Z,31.30
2018-02-18T19:21:24.661Z,25.25
2018-02-18T19:23:52.248Z,31.25
2018-02-18T19:26:19.805Z,32.45
2018-02-18T19:28:47.353Z,32.92
2018-02-18T19:31:14.932Z,27.75
2018-02-18T19:33:42.473Z,43.60
2018-02-18T19:36:10.335Z,35.85
2018-02-18T19:38:37.970Z,35.50
2018-02-18T19:41:05.508Z,31.40
2018-02-18T19:43:33.847Z,34.58
2018-02-18T19:46:01.428Z,36.25
2018-02-18T19:48:28.964Z,37.25
2018-02-18T19:50:56.619Z,38.30
2018-02-18T19:53:24.173Z,31.83
2018-02-18T19:55:51.721Z,37.72
2018-02-18T19:58:19.301Z,40.33
2018-02-18T20:00:46.840Z,35.35
2018-02-18T20:03:14.428Z,34.58
2018-02-18T20:05:41.967Z,32.00
2018-02-18T20:08:09.513Z,38.72
2018-02-18T20:10:37.085Z,42.35
2018-02-18T20:13:04.622Z,38.03
2018-02-18T20:15:32.200Z,37.78
2018-02-18T20:17:59.743Z,38.30
2018-02-18T20:20:27.280Z,35.13
2018-02-18T20:22:55.619Z,39.35
2018-02-18T20:25:23.192Z,39.17
2018-02-18T20:27:50.730Z,33.83
2018-02-18T20:30:18.299Z,41.15
2018-02-18T20:32:45.838Z,41.83
2018-02-18T20:35:13.416Z,39.40
2018-02-18T20:37:40.951Z,46.00
2018-02-18T20:40:08.521Z,43.35
2018-02-18T20:42:36.064Z,41.03
2018-02-18T20:45:03.647Z,37.88
2018-02-18T20:47:31.193Z,44.25
2018-02-18T20:49:58.723Z,41.45
2018-02-18T20:52:27.109Z,40.08
2018-02-18T20:54:55.453Z,39.10
2018-02-18T20:57:22.991Z,40.25
2018-02-18T20:59:50.528Z,46.33
2018-02-18T21:02:18.097Z,42.03
2018-02-18T21:04:45.634Z,43.80
2018-02-18T21:07:13.208Z,44.38
2018-02-18T21:09:40.781Z,45.85
2018-02-18T21:12:08.333Z,59.42
2018-02-18T21:14:35.909Z,51.25
2018-02-18T21:17:03.555Z,48.35
2018-02-18T21:19:31.161Z,43.65
2018-02-18T21:21:58.748Z,46.30
2018-02-18T21:24:26.325Z,47.10
2018-02-18T21:26:53.892Z,46.75
2018-02-18T21:29:21.559Z,47.58
2018-02-18T21:31:49.167Z,46.13
2018-02-18T21:34:16.705Z,51.72
2018-02-18T21:36:44.288Z,43.97
2018-02-18T21:39:11.873Z,46.90
2018-02-18T21:41:40.247Z,51.17
2018-02-18T21:44:08.552Z,51.72
2018-02-18T21:46:36.123Z,64.35
2018-02-18T21:49:03.687Z,43.90
2018-02-18T21:51:31.262Z,96.80
2018-02-18T21:53:58.831Z,42.95
2018-02-18T21:56:26.413Z,55.67
2018-02-18T21:58:54.739Z,47.42
2018-02-18T22:01:22.312Z,42.10
2018-02-18T22:03:49.952Z,50.70
2018-02-18T22:06:17.488Z,50.33
2018-02-18T22:08:45.082Z,45.83
2018-02-18T22:11:12.612Z,50.88
2018-02-18T22:13:40.192Z,47.25
2018-02-18T22:16:07.723Z,49.10
2018-02-18T22:18:36.072Z,47.45
2018-02-18T22:21:03.609Z,51.03
2018-02-18T22:23:31.180Z,55.00
2018-02-18T22:25:58.713Z,51.13
2018-02-18T22:28:26.329Z,51.50
2018-02-18T22:30:54.673Z,54.95
2018-02-18T22:33:22.228Z,51.80
2018-02-18T22:35:49.801Z,52.08
2018-02-18T22:38:17.368Z,57.33
2018-02-18T22:40:44.908Z,56.70
2018-02-18T22:43:12.464Z,57.00
2018-02-18T22:45:40.057Z,54.00
2018-02-18T22:48:08.364Z,56.72
2018-02-18T22:50:35.903Z,54.13
2018-02-18T22:53:04.258Z,59.60
2018-02-18T22:55:31.796Z,49.65
2018-02-18T22:57:59.335Z,52.45
2018-02-18T23:00:26.905Z,46.22
2018-02-18T23:02:54.440Z,68.10
2018-02-18T23:05:27.787Z,57.08
2018-02-18T23:07:56.093Z,58.25
2018-02-18T23:10:24.437Z,55.28
2018-02-18T23:12:51.991Z,49.60
2018-02-18T23:15:19.522Z,54.22
2018-02-18T23:17:47.092Z,51.83
2018-02-18T23:20:14.653Z,47.72
2018-02-18T23:22:42.188Z,53.97
2018-02-18T23:25:10.529Z,58.95
2018-02-18T23:27:38.063Z,55.78
2018-02-18T23:30:05.657Z,58.33
2018-02-18T23:32:33.959Z,55.97
2018-02-18T23:35:01.492Z,64.50
2018-02-18T23:37:29.828Z,67.32
2018-02-18T23:39:57.398Z,63.42
2018-02-18T23:42:24.934Z,59.42
2018-02-18T23:44:52.509Z,64.57
2018-02-18T23:47:20.086Z,60.53
2018-02-18T23:49:47.660Z,77.22
2018-02-18T23:52:15.197Z,61.88
2018-02-18T23:54:42.833Z,96.68
2018-02-18T23:57:10.364Z,77.53
2018-02-18T23:59:38.705Z,77.10
